sensor_id;sensor_type;location;lat;lon;timestamp;temperature;humidity
30594;DHT22;33199;47.590;8.300;2023-03-08T00:01:47;8.50;60.80
30594;DHT22;33199;47.590;8.300;2023-03-08T00:04:13;8.50;60.80
30594;DHT22;33199;47.590;8.300;2023-03-08T00:06:38;8.50;60.90
30594;DHT22;33199;47.590;8.300;2023-03-08T00:09:04;8.60;60.80
30594;DHT22;33199;47.590;8.300;2023-03-08T00:11:30;8.50;60.80
30594;DHT22;33199;47.590;8.300;2023-03-08T00:13:56;8.50;60.90
30594;DHT22;33199;47.590;8.300;2023-03-08T00:16:21;8.50;60.90
30594;DHT22;33199;47.590;8.300;2023-03-08T00:18:47;8.60;60.90
30594;DHT22;33199;47.590;8.300;2023-03-08T00:21:16;8.50;60.90
30594;DHT22;33199;47.590;8.300;2023-03-08T00:23:43;8.60;61.00
30594;DHT22;33199;47.590;8.300;2023-03-08T00:26:10;8.50;60.90
30594;DHT22;33199;47.590;8.300;2023-03-08T00:28:35;8.50;60.90
30594;DHT22;33199;47.590;8.300;2023-03-08T00:31:04;8.50;61.00
30594;DHT22;33199;47.590;8.300;2023-03-08T00:33:29;8.50;60.90
30594;DHT22;33199;47.590;8.300;2023-03-08T00:36:04;8.50;60.90
30594;DHT22;33199;47.590;8.300;2023-03-08T00:38:32;8.50;60.90
30594;DHT22;33199;47.590;8.300;2023-03-08T00:40:58;8.50;61.00
30594;DHT22;33199;47.590;8.300;2023-03-08T00:43:24;8.50;61.00
30594;DHT22;33199;47.590;8.300;2023-03-08T00:45:50;8.50;61.10
30594;DHT22;33199;47.590;8.300;2023-03-08T00:48:16;8.50;61.00
30594;DHT22;33199;47.590;8.300;2023-03-08T00:50:41;8.50;61.00
30594;DHT22;33199;47.590;8.300;2023-03-08T00:53:07;8.50;61.00
30594;DHT22;33199;47.590;8.300;2023-03-08T00:55:33;8.50;61.10
30594;DHT22;33199;47.590;8.300;2023-03-08T00:58:00;8.50;61.00
30594;DHT22;33199;47.590;8.300;2023-03-08T01:00:26;8.50;61.10
30594;DHT22;33199;47.590;8.300;2023-03-08T01:02:52;8.50;61.00
30594;DHT22;33199;47.590;8.300;2023-03-08T01:05:18;8.50;61.00
30594;DHT22;33199;47.590;8.300;2023-03-08T01:07:45;8.50;61.10
30594;DHT22;33199;47.590;8.300;2023-03-08T01:10:11;8.50;61.00
30594;DHT22;33199;47.590;8.300;2023-03-08T01:12:37;8.50;61.10
30594;DHT22;33199;47.590;8.300;2023-03-08T01:15:04;8.50;61.10
30594;DHT22;33199;47.590;8.300;2023-03-08T01:17:31;8.50;61.30
30594;DHT22;33199;47.590;8.300;2023-03-08T01:19:56;8.50;61.10
30594;DHT22;33199;47.590;8.300;2023-03-08T01:22:22;8.50;61.10
30594;DHT22;33199;47.590;8.300;2023-03-08T01:24:48;8.50;61.10
30594;DHT22;33199;47.590;8.300;2023-03-08T01:27:15;8.50;61.10
30594;DHT22;33199;47.590;8.300;2023-03-08T01:29:42;8.50;61.10
30594;DHT22;33199;47.590;8.300;2023-03-08T01:32:09;8.50;61.10
30594;DHT22;33199;47.590;8.300;2023-03-08T01:34:36;8.50;61.20
30594;DHT22;33199;47.590;8.300;2023-03-08T01:37:01;8.50;61.20
30594;DHT22;33199;47.590;8.300;2023-03-08T01:39:27;8.50;61.10
30594;DHT22;33199;47.590;8.300;2023-03-08T01:41:53;8.50;61.10
30594;DHT22;33199;47.590;8.300;2023-03-08T01:44:19;8.50;61.20
30594;DHT22;33199;47.590;8.300;2023-03-08T01:46:47;8.50;61.20
30594;DHT22;33199;47.590;8.300;2023-03-08T01:49:34;8.50;61.20
30594;DHT22;33199;47.590;8.300;2023-03-08T01:52:05;8.50;61.20
30594;DHT22;33199;47.590;8.300;2023-03-08T01:54:36;8.50;61.20
30594;DHT22;33199;47.590;8.300;2023-03-08T01:57:16;8.50;61.20
30594;DHT22;33199;47.590;8.300;2023-03-08T01:59:42;8.50;61.20
30594;DHT22;33199;47.590;8.300;2023-03-08T02:02:09;8.50;61.30
30594;DHT22;33199;47.590;8.300;2023-03-08T02:04:35;8.50;61.30
30594;DHT22;33199;47.590;8.300;2023-03-08T02:07:01;8.50;61.30
30594;DHT22;33199;47.590;8.300;2023-03-08T02:09:26;8.50;61.30
30594;DHT22;33199;47.590;8.300;2023-03-08T02:11:53;8.50;61.30
30594;DHT22;33199;47.590;8.300;2023-03-08T02:14:19;8.50;61.30
30594;DHT22;33199;47.590;8.300;2023-03-08T02:16:45;8.50;61.30
30594;DHT22;33199;47.590;8.300;2023-03-08T02:19:25;8.50;61.40
30594;DHT22;33199;47.590;8.300;2023-03-08T02:21:51;8.50;61.40
30594;DHT22;33199;47.590;8.300;2023-03-08T02:24:19;8.50;61.40
30594;DHT22;33199;47.590;8.300;2023-03-08T02:26:46;8.50;61.40
30594;DHT22;33199;47.590;8.300;2023-03-08T02:29:12;8.50;61.40
30594;DHT22;33199;47.590;8.300;2023-03-08T02:31:38;8.50;61.30
30594;DHT22;33199;47.590;8.300;2023-03-08T02:34:04;8.50;61.30
30594;DHT22;33199;47.590;8.300;2023-03-08T02:36:29;8.50;61.40
30594;DHT22;33199;47.590;8.300;2023-03-08T02:38:55;8.40;61.40
30594;DHT22;33199;47.590;8.300;2023-03-08T02:41:20;8.50;61.40
30594;DHT22;33199;47.590;8.300;2023-03-08T02:43:46;8.50;61.40
30594;DHT22;33199;47.590;8.300;2023-03-08T02:46:13;8.50;61.40
30594;DHT22;33199;47.590;8.300;2023-03-08T02:48:38;8.50;61.40
30594;DHT22;33199;47.590;8.300;2023-03-08T02:51:04;8.50;61.40
30594;DHT22;33199;47.590;8.300;2023-03-08T02:53:30;8.40;61.40
30594;DHT22;33199;47.590;8.300;2023-03-08T02:55:55;8.40;61.40
30594;DHT22;33199;47.590;8.300;2023-03-08T02:58:21;8.40;61.40
30594;DHT22;33199;47.590;8.300;2023-03-08T03:00:48;8.40;61.40
30594;DHT22;33199;47.590;8.300;2023-03-08T03:03:15;8.40;61.40
30594;DHT22;33199;47.590;8.300;2023-03-08T03:05:43;8.40;61.50
30594;DHT22;33199;47.590;8.300;2023-03-08T03:08:10;8.40;61.40
30594;DHT22;33199;47.590;8.300;2023-03-08T03:10:37;8.40;61.40
30594;DHT22;33199;47.590;8.300;2023-03-08T03:13:04;8.40;61.50
30594;DHT22;33199;47.590;8.300;2023-03-08T03:15:30;8.40;61.60
30594;DHT22;33199;47.590;8.300;2023-03-08T03:17:56;8.40;62.40
30594;DHT22;33199;47.590;8.300;2023-03-08T03:20:21;8.40;61.50
30594;DHT22;33199;47.590;8.300;2023-03-08T03:22:47;8.40;61.60
30594;DHT22;33199;47.590;8.300;2023-03-08T03:25:13;8.40;61.60
30594;DHT22;33199;47.590;8.300;2023-03-08T03:27:39;8.40;61.60
30594;DHT22;33199;47.590;8.300;2023-03-08T03:30:06;8.40;61.60
30594;DHT22;33199;47.590;8.300;2023-03-08T03:32:33;8.40;61.50
30594;DHT22;33199;47.590;8.300;2023-03-08T03:34:58;8.40;61.50
30594;DHT22;33199;47.590;8.300;2023-03-08T03:37:24;8.40;61.50
30594;DHT22;33199;47.590;8.300;2023-03-08T03:39:50;8.40;61.50
30594;DHT22;33199;47.590;8.300;2023-03-08T03:42:16;8.40;61.50
30594;DHT22;33199;47.590;8.300;2023-03-08T03:44:42;8.40;61.60
30594;DHT22;33199;47.590;8.300;2023-03-08T03:47:08;8.40;61.60
30594;DHT22;33199;47.590;8.300;2023-03-08T03:49:33;8.40;61.60
30594;DHT22;33199;47.590;8.300;2023-03-08T03:51:59;8.40;61.60
30594;DHT22;33199;47.590;8.300;2023-03-08T03:54:25;8.40;61.60
30594;DHT22;33199;47.590;8.300;2023-03-08T03:56:50;8.40;61.60
30594;DHT22;33199;47.590;8.300;2023-03-08T03:59:16;8.40;61.70
30594;DHT22;33199;47.590;8.300;2023-03-08T04:01:42;8.40;61.60
30594;DHT22;33199;47.590;8.300;2023-03-08T04:04:08;8.40;61.70
30594;DHT22;33199;47.590;8.300;2023-03-08T04:06:34;8.40;62.40
30594;DHT22;33199;47.590;8.300;2023-03-08T04:09:05;8.40;61.60
30594;DHT22;33199;47.590;8.300;2023-03-08T04:11:34;8.40;61.70
30594;DHT22;33199;47.590;8.300;2023-03-08T04:14:00;8.40;62.50
30594;DHT22;33199;47.590;8.300;2023-03-08T04:16:31;8.40;61.80
30594;DHT22;33199;47.590;8.300;2023-03-08T04:19:02;8.40;61.70
30594;DHT22;33199;47.590;8.300;2023-03-08T04:21:29;8.30;61.70
30594;DHT22;33199;47.590;8.300;2023-03-08T04:23:55;8.40;61.80
30594;DHT22;33199;47.590;8.300;2023-03-08T04:26:22;8.40;61.80
30594;DHT22;33199;47.590;8.300;2023-03-08T04:28:48;8.30;61.70
30594;DHT22;33199;47.590;8.300;2023-03-08T04:31:25;8.40;61.80
30594;DHT22;33199;47.590;8.300;2023-03-08T04:33:51;8.30;61.70
30594;DHT22;33199;47.590;8.300;2023-03-08T04:36:17;8.40;61.80
30594;DHT22;33199;47.590;8.300;2023-03-08T04:38:44;8.40;61.80
30594;DHT22;33199;47.590;8.300;2023-03-08T04:41:10;8.30;61.70
30594;DHT22;33199;47.590;8.300;2023-03-08T04:43:42;8.30;61.70
30594;DHT22;33199;47.590;8.300;2023-03-08T04:46:08;8.30;61.70
30594;DHT22;33199;47.590;8.300;2023-03-08T04:48:34;8.30;61.70
30594;DHT22;33199;47.590;8.300;2023-03-08T04:51:02;8.30;61.80
30594;DHT22;33199;47.590;8.300;2023-03-08T04:53:29;8.30;61.70
30594;DHT22;33199;47.590;8.300;2023-03-08T04:55:55;8.30;61.70
30594;DHT22;33199;47.590;8.300;2023-03-08T04:58:21;8.30;61.70
30594;DHT22;33199;47.590;8.300;2023-03-08T05:00:47;8.30;61.70
30594;DHT22;33199;47.590;8.300;2023-03-08T05:03:13;8.30;61.70
30594;DHT22;33199;47.590;8.300;2023-03-08T05:05:53;8.30;61.70
30594;DHT22;33199;47.590;8.300;2023-03-08T05:08:20;8.30;61.70
30594;DHT22;33199;47.590;8.300;2023-03-08T05:10:55;8.30;61.70
30594;DHT22;33199;47.590;8.300;2023-03-08T05:13:25;8.30;61.70
30594;DHT22;33199;47.590;8.300;2023-03-08T05:15:51;8.30;61.70
30594;DHT22;33199;47.590;8.300;2023-03-08T05:18:17;8.30;61.70
30594;DHT22;33199;47.590;8.300;2023-03-08T05:20:43;8.30;61.70
30594;DHT22;33199;47.590;8.300;2023-03-08T05:23:09;8.30;61.70
30594;DHT22;33199;47.590;8.300;2023-03-08T05:25:40;8.30;61.80
30594;DHT22;33199;47.590;8.300;2023-03-08T05:28:06;8.30;61.70
30594;DHT22;33199;47.590;8.300;2023-03-08T05:30:32;8.30;61.70
30594;DHT22;33199;47.590;8.300;2023-03-08T05:32:57;8.30;61.80
30594;DHT22;33199;47.590;8.300;2023-03-08T05:35:23;8.30;61.70
30594;DHT22;33199;47.590;8.300;2023-03-08T05:37:49;8.30;61.70
30594;DHT22;33199;47.590;8.300;2023-03-08T05:40:14;8.30;61.80
30594;DHT22;33199;47.590;8.300;2023-03-08T05:42:40;8.30;60.30
30594;DHT22;33199;47.590;8.300;2023-03-08T05:45:06;8.30;57.80
30594;DHT22;33199;47.590;8.300;2023-03-08T05:47:32;8.10;57.60
30594;DHT22;33199;47.590;8.300;2023-03-08T05:49:58;8.00;58.60
30594;DHT22;33199;47.590;8.300;2023-03-08T05:52:23;8.00;59.30
30594;DHT22;33199;47.590;8.300;2023-03-08T05:54:49;7.90;59.60
30594;DHT22;33199;47.590;8.300;2023-03-08T05:57:14;7.90;60.10
30594;DHT22;33199;47.590;8.300;2023-03-08T05:59:40;8.00;61.00
30594;DHT22;33199;47.590;8.300;2023-03-08T06:02:05;8.00;61.30
30594;DHT22;33199;47.590;8.300;2023-03-08T06:04:31;8.00;61.20
30594;DHT22;33199;47.590;8.300;2023-03-08T06:06:57;8.00;61.40
30594;DHT22;33199;47.590;8.300;2023-03-08T06:09:22;8.00;61.30
30594;DHT22;33199;47.590;8.300;2023-03-08T06:11:48;8.00;61.20
30594;DHT22;33199;47.590;8.300;2023-03-08T06:14:13;8.00;61.00
30594;DHT22;33199;47.590;8.300;2023-03-08T06:16:39;8.00;60.80
30594;DHT22;33199;47.590;8.300;2023-03-08T06:19:04;8.00;60.90
30594;DHT22;33199;47.590;8.300;2023-03-08T06:21:30;8.00;60.80
30594;DHT22;33199;47.590;8.300;2023-03-08T06:23:56;8.10;60.70
30594;DHT22;33199;47.590;8.300;2023-03-08T06:26:21;8.00;60.80
30594;DHT22;33199;47.590;8.300;2023-03-08T06:28:47;8.10;60.80
30594;DHT22;33199;47.590;8.300;2023-03-08T06:31:14;8.10;60.90
30594;DHT22;33199;47.590;8.300;2023-03-08T06:33:41;8.10;60.80
30594;DHT22;33199;47.590;8.300;2023-03-08T06:36:24;8.10;61.60
30594;DHT22;33199;47.590;8.300;2023-03-08T06:38:50;8.10;60.90
30594;DHT22;33199;47.590;8.300;2023-03-08T06:41:17;8.10;60.90
30594;DHT22;33199;47.590;8.300;2023-03-08T06:43:43;8.10;60.90
30594;DHT22;33199;47.590;8.300;2023-03-08T06:46:13;8.10;60.90
30594;DHT22;33199;47.590;8.300;2023-03-08T06:48:41;8.10;61.00
30594;DHT22;33199;47.590;8.300;2023-03-08T06:51:07;8.10;61.00
30594;DHT22;33199;47.590;8.300;2023-03-08T06:53:33;8.10;61.10
30594;DHT22;33199;47.590;8.300;2023-03-08T06:56:01;8.10;61.10
30594;DHT22;33199;47.590;8.300;2023-03-08T06:58:28;8.00;61.00
30594;DHT22;33199;47.590;8.300;2023-03-08T07:00:53;8.10;61.10
30594;DHT22;33199;47.590;8.300;2023-03-08T07:03:19;8.10;61.80
30594;DHT22;33199;47.590;8.300;2023-03-08T07:05:45;8.10;61.10
30594;DHT22;33199;47.590;8.300;2023-03-08T07:08:10;8.10;61.20
30594;DHT22;33199;47.590;8.300;2023-03-08T07:10:36;8.10;61.20
30594;DHT22;33199;47.590;8.300;2023-03-08T07:13:01;8.00;61.20
30594;DHT22;33199;47.590;8.300;2023-03-08T07:15:28;8.10;61.20
30594;DHT22;33199;47.590;8.300;2023-03-08T07:17:55;8.10;61.30
30594;DHT22;33199;47.590;8.300;2023-03-08T07:20:23;8.10;61.30
30594;DHT22;33199;47.590;8.300;2023-03-08T07:22:49;8.00;61.30
30594;DHT22;33199;47.590;8.300;2023-03-08T07:25:17;8.00;61.30
30594;DHT22;33199;47.590;8.300;2023-03-08T07:27:43;8.10;61.40
30594;DHT22;33199;47.590;8.300;2023-03-08T07:30:11;8.10;61.40
30594;DHT22;33199;47.590;8.300;2023-03-08T07:32:39;8.10;61.40
30594;DHT22;33199;47.590;8.300;2023-03-08T07:35:08;8.10;61.40
30594;DHT22;33199;47.590;8.300;2023-03-08T07:37:34;8.10;61.40
30594;DHT22;33199;47.590;8.300;2023-03-08T07:39:59;8.10;61.40
30594;DHT22;33199;47.590;8.300;2023-03-08T07:42:25;8.10;61.50
30594;DHT22;33199;47.590;8.300;2023-03-08T07:44:53;8.10;61.50
30594;DHT22;33199;47.590;8.300;2023-03-08T07:47:19;8.10;61.60
30594;DHT22;33199;47.590;8.300;2023-03-08T07:49:45;8.00;61.60
30594;DHT22;33199;47.590;8.300;2023-03-08T07:52:11;8.10;61.60
30594;DHT22;33199;47.590;8.300;2023-03-08T07:54:36;8.00;61.50
30594;DHT22;33199;47.590;8.300;2023-03-08T07:57:02;8.10;61.60
30594;DHT22;33199;47.590;8.300;2023-03-08T07:59:28;8.10;61.60
30594;DHT22;33199;47.590;8.300;2023-03-08T08:01:54;8.10;61.60
30594;DHT22;33199;47.590;8.300;2023-03-08T08:04:19;8.10;61.60
30594;DHT22;33199;47.590;8.300;2023-03-08T08:06:47;8.00;61.60
30594;DHT22;33199;47.590;8.300;2023-03-08T08:09:13;8.10;61.60
30594;DHT22;33199;47.590;8.300;2023-03-08T08:11:39;8.10;61.60
30594;DHT22;33199;47.590;8.300;2023-03-08T08:14:05;8.00;61.60
30594;DHT22;33199;47.590;8.300;2023-03-08T08:16:31;8.00;61.60
30594;DHT22;33199;47.590;8.300;2023-03-08T08:18:57;8.00;61.70
30594;DHT22;33199;47.590;8.300;2023-03-08T08:21:22;8.00;61.80
30594;DHT22;33199;47.590;8.300;2023-03-08T08:23:48;8.00;61.70
30594;DHT22;33199;47.590;8.300;2023-03-08T08:26:19;8.00;61.70
30594;DHT22;33199;47.590;8.300;2023-03-08T08:28:47;8.00;61.80
30594;DHT22;33199;47.590;8.300;2023-03-08T08:31:17;8.00;62.60
30594;DHT22;33199;47.590;8.300;2023-03-08T08:33:43;8.00;61.80
30594;DHT22;33199;47.590;8.300;2023-03-08T08:36:14;8.10;61.90
30594;DHT22;33199;47.590;8.300;2023-03-08T08:38:40;8.10;61.90
30594;DHT22;33199;47.590;8.300;2023-03-08T08:41:08;8.10;61.90
30594;DHT22;33199;47.590;8.300;2023-03-08T08:43:35;8.10;61.90
30594;DHT22;33199;47.590;8.300;2023-03-08T08:46:02;8.10;61.90
30594;DHT22;33199;47.590;8.300;2023-03-08T08:48:28;8.10;62.00
30594;DHT22;33199;47.590;8.300;2023-03-08T08:50:54;8.10;61.90
30594;DHT22;33199;47.590;8.300;2023-03-08T08:53:20;8.10;61.90
30594;DHT22;33199;47.590;8.300;2023-03-08T08:55:46;8.10;62.00
30594;DHT22;33199;47.590;8.300;2023-03-08T08:58:12;8.10;62.00
30594;DHT22;33199;47.590;8.300;2023-03-08T09:00:38;8.10;62.00
30594;DHT22;33199;47.590;8.300;2023-03-08T09:03:04;8.10;62.00
30594;DHT22;33199;47.590;8.300;2023-03-08T09:05:31;8.10;62.00
30594;DHT22;33199;47.590;8.300;2023-03-08T09:07:58;8.10;62.00
30594;DHT22;33199;47.590;8.300;2023-03-08T09:10:29;8.10;62.10
30594;DHT22;33199;47.590;8.300;2023-03-08T09:12:57;8.10;62.10
30594;DHT22;33199;47.590;8.300;2023-03-08T09:15:23;8.10;62.20
30594;DHT22;33199;47.590;8.300;2023-03-08T09:17:49;8.10;62.20
30594;DHT22;33199;47.590;8.300;2023-03-08T09:20:15;8.10;62.20
30594;DHT22;33199;47.590;8.300;2023-03-08T09:22:41;8.10;62.20
30594;DHT22;33199;47.590;8.300;2023-03-08T09:25:08;8.10;62.20
30594;DHT22;33199;47.590;8.300;2023-03-08T09:27:35;8.10;62.30
30594;DHT22;33199;47.590;8.300;2023-03-08T09:30:00;8.10;62.20
30594;DHT22;33199;47.590;8.300;2023-03-08T09:32:26;8.10;62.30
30594;DHT22;33199;47.590;8.300;2023-03-08T09:34:53;8.10;62.40
30594;DHT22;33199;47.590;8.300;2023-03-08T09:37:19;8.10;62.40
30594;DHT22;33199;47.590;8.300;2023-03-08T09:39:45;8.10;62.40
30594;DHT22;33199;47.590;8.300;2023-03-08T09:42:31;8.10;62.40
30594;DHT22;33199;47.590;8.300;2023-03-08T09:45:30;8.10;62.40
30594;DHT22;33199;47.590;8.300;2023-03-08T09:50:34;8.10;62.40
30594;DHT22;33199;47.590;8.300;2023-03-08T09:53:24;8.10;62.50
30594;DHT22;33199;47.590;8.300;2023-03-08T09:55:57;8.10;62.50
30594;DHT22;33199;47.590;8.300;2023-03-08T10:01:37;8.10;62.50
30594;DHT22;33199;47.590;8.300;2023-03-08T10:07:18;8.10;62.60
30594;DHT22;33199;47.590;8.300;2023-03-08T10:12:27;8.10;62.60
30594;DHT22;33199;47.590;8.300;2023-03-08T10:15:01;8.10;62.60
30594;DHT22;33199;47.590;8.300;2023-03-08T10:17:39;8.10;62.60
30594;DHT22;33199;47.590;8.300;2023-03-08T10:20:22;8.10;62.60
30594;DHT22;33199;47.590;8.300;2023-03-08T10:25:36;8.10;62.70
30594;DHT22;33199;47.590;8.300;2023-03-08T10:28:07;8.10;62.60
30594;DHT22;33199;47.590;8.300;2023-03-08T10:30:37;8.10;62.70
30594;DHT22;33199;47.590;8.300;2023-03-08T10:33:12;8.20;62.80
30594;DHT22;33199;47.590;8.300;2023-03-08T10:36:05;8.10;62.80
30594;DHT22;33199;47.590;8.300;2023-03-08T10:38:34;8.10;62.80
30594;DHT22;33199;47.590;8.300;2023-03-08T10:41:11;8.10;62.70
30594;DHT22;33199;47.590;8.300;2023-03-08T10:43:54;8.10;62.70
30594;DHT22;33199;47.590;8.300;2023-03-08T10:46:22;8.10;62.80
30594;DHT22;33199;47.590;8.300;2023-03-08T10:48:49;8.10;62.90
30594;DHT22;33199;47.590;8.300;2023-03-08T10:51:28;8.20;62.90
30594;DHT22;33199;47.590;8.300;2023-03-08T10:54:02;8.10;62.90
30594;DHT22;33199;47.590;8.300;2023-03-08T10:56:38;8.10;62.90
30594;DHT22;33199;47.590;8.300;2023-03-08T10:59:35;8.20;63.20
30594;DHT22;33199;47.590;8.300;2023-03-08T11:04:59;8.10;63.10
30594;DHT22;33199;47.590;8.300;2023-03-08T11:07:30;8.10;63.20
30594;DHT22;33199;47.590;8.300;2023-03-08T11:10:17;8.10;63.10
30594;DHT22;33199;47.590;8.300;2023-03-08T11:12:43;8.10;63.20
30594;DHT22;33199;47.590;8.300;2023-03-08T11:15:13;8.20;63.20
30594;DHT22;33199;47.590;8.300;2023-03-08T11:17:46;8.20;63.30
30594;DHT22;33199;47.590;8.300;2023-03-08T11:20:35;8.20;63.20
30594;DHT22;33199;47.590;8.300;2023-03-08T11:23:36;8.20;63.40
30594;DHT22;33199;47.590;8.300;2023-03-08T11:26:31;8.20;63.30
30594;DHT22;33199;47.590;8.300;2023-03-08T11:48:04;8.20;63.40
30594;DHT22;33199;47.590;8.300;2023-03-08T11:50:48;8.20;63.40
30594;DHT22;33199;47.590;8.300;2023-03-08T11:53:33;8.20;63.40
30594;DHT22;33199;47.590;8.300;2023-03-08T11:56:23;8.20;63.50
30594;DHT22;33199;47.590;8.300;2023-03-08T11:59:18;8.20;63.50
30594;DHT22;33199;47.590;8.300;2023-03-08T12:01:49;8.20;63.50
30594;DHT22;33199;47.590;8.300;2023-03-08T12:06:59;8.20;63.70
30594;DHT22;33199;47.590;8.300;2023-03-08T12:09:33;8.20;63.60
30594;DHT22;33199;47.590;8.300;2023-03-08T12:12:13;8.20;63.60
30594;DHT22;33199;47.590;8.300;2023-03-08T12:17:45;8.20;63.80
30594;DHT22;33199;47.590;8.300;2023-03-08T12:20:16;8.20;63.80
30594;DHT22;33199;47.590;8.300;2023-03-08T12:22:56;8.20;63.90
30594;DHT22;33199;47.590;8.300;2023-03-08T12:25:34;8.20;63.80
30594;DHT22;33199;47.590;8.300;2023-03-08T12:30:41;8.20;64.30
30594;DHT22;33199;47.590;8.300;2023-03-08T12:33:11;8.30;64.20
30594;DHT22;33199;47.590;8.300;2023-03-08T12:35:56;8.30;64.30
30594;DHT22;33199;47.590;8.300;2023-03-08T12:40:52;8.30;64.00
30594;DHT22;33199;47.590;8.300;2023-03-08T12:48:39;8.20;64.00
30594;DHT22;33199;47.590;8.300;2023-03-08T12:58:52;8.30;64.10
30594;DHT22;33199;47.590;8.300;2023-03-08T13:04:00;8.30;64.20
30594;DHT22;33199;47.590;8.300;2023-03-08T13:06:32;8.30;64.30
30594;DHT22;33199;47.590;8.300;2023-03-08T13:09:15;8.30;64.20
30594;DHT22;33199;47.590;8.300;2023-03-08T13:11:47;8.30;64.10
30594;DHT22;33199;47.590;8.300;2023-03-08T13:14:24;8.30;65.10
30594;DHT22;33199;47.590;8.300;2023-03-08T13:16:50;8.30;64.30
30594;DHT22;33199;47.590;8.300;2023-03-08T13:19:27;8.30;64.20
30594;DHT22;33199;47.590;8.300;2023-03-08T13:22:17;8.30;64.30
30594;DHT22;33199;47.590;8.300;2023-03-08T13:28:03;8.30;64.20
30594;DHT22;33199;47.590;8.300;2023-03-08T13:30:37;8.30;64.30
30594;DHT22;33199;47.590;8.300;2023-03-08T13:33:14;8.30;64.20
30594;DHT22;33199;47.590;8.300;2023-03-08T13:35:42;8.30;64.30
30594;DHT22;33199;47.590;8.300;2023-03-08T13:38:20;8.30;64.30
30594;DHT22;33199;47.590;8.300;2023-03-08T13:40:51;8.30;64.40
30594;DHT22;33199;47.590;8.300;2023-03-08T13:43:20;8.40;64.40
30594;DHT22;33199;47.590;8.300;2023-03-08T13:45:48;8.30;64.50
30594;DHT22;33199;47.590;8.300;2023-03-08T13:48:15;8.40;64.40
30594;DHT22;33199;47.590;8.300;2023-03-08T13:50:51;8.40;64.40
30594;DHT22;33199;47.590;8.300;2023-03-08T13:53:26;8.40;64.60
30594;DHT22;33199;47.590;8.300;2023-03-08T13:55:55;8.40;64.80
30594;DHT22;33199;47.590;8.300;2023-03-08T13:58:32;8.40;64.80
30594;DHT22;33199;47.590;8.300;2023-03-08T14:01:44;8.40;64.70
30594;DHT22;33199;47.590;8.300;2023-03-08T14:03:48;8.40;64.70
30594;DHT22;33199;47.590;8.300;2023-03-08T14:08:49;8.40;64.80
30594;DHT22;33199;47.590;8.300;2023-03-08T14:11:22;8.40;64.80
30594;DHT22;33199;47.590;8.300;2023-03-08T14:13:53;8.40;64.70
30594;DHT22;33199;47.590;8.300;2023-03-08T14:16:36;8.40;64.70
30594;DHT22;33199;47.590;8.300;2023-03-08T14:19:21;8.40;64.80
30594;DHT22;33199;47.590;8.300;2023-03-08T14:21:57;8.40;64.80
30594;DHT22;33199;47.590;8.300;2023-03-08T14:24:30;8.40;64.70
30594;DHT22;33199;47.590;8.300;2023-03-08T14:29:34;8.40;65.00
30594;DHT22;33199;47.590;8.300;2023-03-08T14:34:37;8.50;65.10
30594;DHT22;33199;47.590;8.300;2023-03-08T14:37:13;8.50;64.90
30594;DHT22;33199;47.590;8.300;2023-03-08T14:39:43;8.50;64.80
30594;DHT22;33199;47.590;8.300;2023-03-08T14:42:25;8.50;64.90
30594;DHT22;33199;47.590;8.300;2023-03-08T14:44:59;8.50;65.00
30594;DHT22;33199;47.590;8.300;2023-03-08T14:47:30;8.50;65.20
30594;DHT22;33199;47.590;8.300;2023-03-08T14:50:01;8.50;65.20
30594;DHT22;33199;47.590;8.300;2023-03-08T14:52:29;8.50;65.20
30594;DHT22;33199;47.590;8.300;2023-03-08T14:54:55;8.50;65.30
30594;DHT22;33199;47.590;8.300;2023-03-08T14:57:22;8.50;65.10
30594;DHT22;33199;47.590;8.300;2023-03-08T14:59:49;8.50;65.20
30594;DHT22;33199;47.590;8.300;2023-03-08T15:02:16;8.50;65.40
30594;DHT22;33199;47.590;8.300;2023-03-08T15:04:43;8.50;65.40
30594;DHT22;33199;47.590;8.300;2023-03-08T15:07:20;8.50;65.60
30594;DHT22;33199;47.590;8.300;2023-03-08T15:09:48;8.50;65.70
30594;DHT22;33199;47.590;8.300;2023-03-08T15:12:14;8.50;65.50
30594;DHT22;33199;47.590;8.300;2023-03-08T15:14:40;8.50;65.70
30594;DHT22;33199;47.590;8.300;2023-03-08T15:17:05;8.50;65.60
30594;DHT22;33199;47.590;8.300;2023-03-08T15:19:31;8.50;65.40
30594;DHT22;33199;47.590;8.300;2023-03-08T15:21:57;8.60;65.40
30594;DHT22;33199;47.590;8.300;2023-03-08T15:24:25;8.50;65.30
30594;DHT22;33199;47.590;8.300;2023-03-08T15:26:51;8.50;65.30
30594;DHT22;33199;47.590;8.300;2023-03-08T15:29:24;8.50;65.30
30594;DHT22;33199;47.590;8.300;2023-03-08T15:31:54;8.50;65.20
30594;DHT22;33199;47.590;8.300;2023-03-08T15:34:20;8.50;65.30
30594;DHT22;33199;47.590;8.300;2023-03-08T15:36:47;8.60;65.30
30594;DHT22;33199;47.590;8.300;2023-03-08T15:39:13;8.60;65.40
30594;DHT22;33199;47.590;8.300;2023-03-08T15:41:39;8.60;65.70
30594;DHT22;33199;47.590;8.300;2023-03-08T15:44:04;8.60;65.60
30594;DHT22;33199;47.590;8.300;2023-03-08T15:46:30;8.60;65.70
30594;DHT22;33199;47.590;8.300;2023-03-08T15:48:56;8.60;65.60
30594;DHT22;33199;47.590;8.300;2023-03-08T15:51:24;8.60;65.70
30594;DHT22;33199;47.590;8.300;2023-03-08T15:53:52;8.60;65.70
30594;DHT22;33199;47.590;8.300;2023-03-08T15:56:18;8.60;65.70
30594;DHT22;33199;47.590;8.300;2023-03-08T15:58:43;8.60;65.70
30594;DHT22;33199;47.590;8.300;2023-03-08T16:01:09;8.60;65.70
30594;DHT22;33199;47.590;8.300;2023-03-08T16:03:36;8.60;65.70
30594;DHT22;33199;47.590;8.300;2023-03-08T16:06:08;8.60;65.60
30594;DHT22;33199;47.590;8.300;2023-03-08T16:08:33;8.60;65.60
30594;DHT22;33199;47.590;8.300;2023-03-08T16:11:00;8.60;65.90
30594;DHT22;33199;47.590;8.300;2023-03-08T16:13:28;8.60;65.80
30594;DHT22;33199;47.590;8.300;2023-03-08T16:15:57;8.60;65.80
30594;DHT22;33199;47.590;8.300;2023-03-08T16:18:23;8.60;65.80
30594;DHT22;33199;47.590;8.300;2023-03-08T16:20:49;8.60;65.70
30594;DHT22;33199;47.590;8.300;2023-03-08T16:23:15;8.70;65.80
30594;DHT22;33199;47.590;8.300;2023-03-08T16:25:40;8.60;66.00
30594;DHT22;33199;47.590;8.300;2023-03-08T16:28:08;8.60;65.80
30594;DHT22;33199;47.590;8.300;2023-03-08T16:30:34;8.60;66.30
30594;DHT22;33199;47.590;8.300;2023-03-08T16:32:59;8.70;66.10
30594;DHT22;33199;47.590;8.300;2023-03-08T16:35:25;8.60;66.20
30594;DHT22;33199;47.590;8.300;2023-03-08T16:37:54;8.70;66.60
30594;DHT22;33199;47.590;8.300;2023-03-08T16:40:20;8.60;66.50
30594;DHT22;33199;47.590;8.300;2023-03-08T16:42:49;8.60;66.40
30594;DHT22;33199;47.590;8.300;2023-03-08T16:45:15;8.70;66.50
30594;DHT22;33199;47.590;8.300;2023-03-08T16:47:41;8.70;66.50
30594;DHT22;33199;47.590;8.300;2023-03-08T16:50:10;8.60;66.40
30594;DHT22;33199;47.590;8.300;2023-03-08T16:52:35;8.70;67.50
30594;DHT22;33199;47.590;8.300;2023-03-08T16:55:01;8.80;77.90
30594;DHT22;33199;47.590;8.300;2023-03-08T16:57:27;9.00;82.50
30594;DHT22;33199;47.590;8.300;2023-03-08T16:59:52;9.10;83.70
30594;DHT22;33199;47.590;8.300;2023-03-08T17:02:20;9.20;84.20
30594;DHT22;33199;47.590;8.300;2023-03-08T17:04:46;9.20;82.80
30594;DHT22;33199;47.590;8.300;2023-03-08T17:07:13;9.30;82.50
30594;DHT22;33199;47.590;8.300;2023-03-08T17:09:38;9.30;81.60